createdAt,value
2018-07-30T00:00:36.665Z,100557.06
2018-07-30T00:03:06.660Z,100558.93
2018-07-30T00:05:36.740Z,100567.40
2018-07-30T00:08:06.805Z,100579.36
2018-07-30T00:10:37.054Z,100584.97
2018-07-30T00:13:07.024Z,100584.20
2018-07-30T00:15:36.991Z,100575.60
2018-07-30T00:18:06.986Z,100583.75
2018-07-30T00:20:37.002Z,100582.78
2018-07-30T00:23:06.815Z,100583.29
2018-07-30T00:25:38.728Z,100587.28
2018-07-30T00:28:08.620Z,100591.32
2018-07-30T00:30:38.602Z,100582.56
2018-07-30T00:33:08.718Z,100570.14
2018-07-30T00:35:38.564Z,100568.70
2018-07-30T00:38:08.547Z,100583.70
2018-07-30T00:40:39.367Z,100580.25
2018-07-30T00:43:09.110Z,100575.17
2018-07-30T00:45:39.094Z,100578.43
2018-07-30T00:48:09.139Z,100586.11
2018-07-30T00:50:38.959Z,100579.72
2018-07-30T00:53:08.766Z,100585.75
2018-07-30T00:55:38.814Z,100583.25
2018-07-30T00:58:08.634Z,100584.05
2018-07-30T01:00:38.647Z,100580.05
2018-07-30T01:03:13.024Z,100582.47
2018-07-30T01:05:42.759Z,100578.61
2018-07-30T01:08:12.716Z,100576.92
2018-07-30T01:10:42.726Z,100580.03
2018-07-30T01:13:12.814Z,100568.85
2018-07-30T01:15:42.689Z,100578.20
2018-07-30T01:18:12.642Z,100576.66
2018-07-30T01:20:42.439Z,100577.10
2018-07-30T01:23:12.175Z,100580.36
2018-07-30T01:25:43.316Z,100576.53
2018-07-30T01:28:13.385Z,100586.20
2018-07-30T01:30:43.273Z,100581.76
2018-07-30T01:33:13.079Z,100581.98
2018-07-30T01:35:42.896Z,100579.22
2018-07-30T01:38:12.812Z,100580.34
2018-07-30T01:40:44.795Z,100578.08
2018-07-30T01:43:14.936Z,100583.08
2018-07-30T01:45:45.035Z,100584.13
2018-07-30T01:48:14.945Z,100585.64
2018-07-30T01:50:44.682Z,100579.92
2018-07-30T01:53:14.731Z,100589.05
2018-07-30T01:55:44.574Z,100588.57
2018-07-30T01:58:14.595Z,100591.04
2018-07-30T02:00:44.739Z,100587.24
2018-07-30T02:03:14.760Z,100590.58
2018-07-30T02:05:44.495Z,100587.95
2018-07-30T02:08:14.339Z,100587.11
2018-07-30T02:10:44.433Z,100593.50
2018-07-30T02:13:14.484Z,100595.39
2018-07-30T02:15:44.333Z,100593.70
2018-07-30T02:18:14.907Z,100596.16
2018-07-30T02:20:44.931Z,100598.62
2018-07-30T02:23:14.799Z,100595.17
2018-07-30T02:25:44.732Z,100601.53
2018-07-30T02:28:14.565Z,100603.78
2018-07-30T02:30:44.570Z,100602.90
2018-07-30T02:33:14.294Z,100603.57
2018-07-30T02:35:46.354Z,100607.23
2018-07-30T02:38:16.258Z,100605.52
2018-07-30T02:40:46.234Z,100607.45
2018-07-30T02:43:16.016Z,100609.78
2018-07-30T02:45:46.096Z,100607.82
2018-07-30T02:48:16.118Z,100610.36
2018-07-30T02:50:46.163Z,100613.73
2018-07-30T02:53:16.146Z,100612.41
2018-07-30T02:55:45.929Z,100617.72
2018-07-30T02:58:15.965Z,100616.16
2018-07-30T03:00:46.077Z,100609.11
2018-07-30T03:03:15.974Z,100614.50
2018-07-30T03:05:45.970Z,100618.83
2018-07-30T03:08:15.895Z,100618.92
2018-07-30T03:10:45.839Z,100622.36
2018-07-30T03:13:15.706Z,100623.72
2018-07-30T03:15:45.564Z,100626.87
2018-07-30T03:18:15.379Z,100628.31
2018-07-30T03:20:46.002Z,100623.38
2018-07-30T03:23:15.752Z,100619.20
2018-07-30T03:25:45.552Z,100622.48
2018-07-30T03:28:15.387Z,100625.88
2018-07-30T03:30:45.451Z,100627.98
2018-07-30T03:33:15.467Z,100628.48
2018-07-30T03:35:45.946Z,100617.97
2018-07-30T03:38:15.954Z,100627.28
2018-07-30T03:40:45.994Z,100628.97
2018-07-30T03:43:15.811Z,100632.51
2018-07-30T03:45:45.891Z,100642.14
2018-07-30T03:48:15.644Z,100641.13
2018-07-30T03:50:45.718Z,100636.80
2018-07-30T03:53:15.497Z,100634.13
2018-07-30T03:55:45.542Z,100642.03
2018-07-30T03:58:15.687Z,100646.02
2018-07-30T04:00:45.428Z,100648.72
2018-07-30T04:03:15.326Z,100653.03
2018-07-30T04:05:45.559Z,100650.59
2018-07-30T04:08:15.378Z,100650.06
2018-07-30T04:10:45.643Z,100653.14
2018-07-30T04:13:15.753Z,100650.25
2018-07-30T04:15:45.773Z,100652.44
2018-07-30T04:18:16.391Z,100657.59
2018-07-30T04:20:46.393Z,100663.34
2018-07-30T04:23:16.204Z,100658.84
2018-07-30T04:25:45.991Z,100663.28
2018-07-30T04:28:16.003Z,100669.22
2018-07-30T04:30:45.860Z,100672.08
2018-07-30T04:33:15.691Z,100667.80
2018-07-30T04:35:45.694Z,100666.23
2018-07-30T04:38:15.717Z,100665.94
2018-07-30T04:40:45.597Z,100661.47
2018-07-30T04:43:15.594Z,100670.95
2018-07-30T04:45:46.286Z,100665.90
2018-07-30T04:48:16.160Z,100666.55
2018-07-30T04:50:46.105Z,100663.75
2018-07-30T04:53:15.824Z,100665.84
2018-07-30T04:55:45.638Z,100659.36
2018-07-30T04:58:15.432Z,100663.26
2018-07-30T05:00:45.557Z,100665.91
2018-07-30T05:03:15.664Z,100664.96
2018-07-30T05:05:45.734Z,100669.73
2018-07-30T05:08:15.931Z,100674.84
2018-07-30T05:10:45.878Z,100681.50
2018-07-30T05:13:16.063Z,100683.31
2018-07-30T05:15:46.165Z,100677.18
2018-07-30T05:18:16.213Z,100677.38
2018-07-30T05:20:46.285Z,100676.34
2018-07-30T05:23:16.347Z,100678.77
2018-07-30T05:25:46.114Z,100669.17
2018-07-30T05:28:16.211Z,100672.12
2018-07-30T05:30:45.988Z,100669.89
2018-07-30T05:33:16.152Z,100674.93
2018-07-30T05:35:46.320Z,100678.20
2018-07-30T05:38:16.037Z,100680.36
2018-07-30T05:40:46.188Z,100681.48
2018-07-30T05:43:16.138Z,100684.17
2018-07-30T05:45:45.994Z,100689.14
2018-07-30T05:48:15.788Z,100695.94
2018-07-30T05:50:45.563Z,100680.41
2018-07-30T05:53:15.662Z,100691.42
2018-07-30T05:55:45.795Z,100687.06
2018-07-30T05:58:15.908Z,100688.30
2018-07-30T06:00:45.763Z,100692.84
2018-07-30T06:03:15.884Z,100695.53
2018-07-30T06:05:46.132Z,100694.92
2018-07-30T06:08:16.235Z,100688.47
2018-07-30T06:10:46.083Z,100685.75
2018-07-30T06:13:15.936Z,100679.33
2018-07-30T06:15:47.205Z,100685.91
2018-07-30T06:18:17.016Z,100683.60
2018-07-30T06:20:47.044Z,100683.47
2018-07-30T06:23:16.907Z,100680.33
2018-07-30T06:25:47.320Z,100684.92
2018-07-30T06:28:17.206Z,100686.59
2018-07-30T06:30:47.443Z,100685.67
2018-07-30T06:33:17.511Z,100690.78
2018-07-30T06:35:47.641Z,100679.50
2018-07-30T06:38:18.072Z,100683.89
2018-07-30T06:40:48.339Z,100691.08
2018-07-30T06:43:18.581Z,100684.44
2018-07-30T06:45:48.672Z,100688.42
2018-07-30T06:48:18.519Z,100688.33
2018-07-30T06:50:48.690Z,100693.19
2018-07-30T06:53:18.623Z,100690.28
2018-07-30T06:55:48.603Z,100692.00
2018-07-30T06:58:18.991Z,100701.31
2018-07-30T07:00:48.820Z,100695.77
2018-07-30T07:03:21.281Z,100694.59
2018-07-30T07:05:51.524Z,100703.27
2018-07-30T07:08:21.901Z,100704.57
2018-07-30T07:10:54.166Z,100695.09
2018-07-30T07:13:24.250Z,100706.05
2018-07-30T07:15:54.320Z,100705.92
2018-07-30T07:18:24.137Z,100707.13
2018-07-30T07:20:54.387Z,100707.17
2018-07-30T07:23:24.225Z,100707.72
2018-07-30T07:25:54.314Z,100708.88
2018-07-30T07:28:24.094Z,100719.81
2018-07-30T07:30:54.072Z,100710.14
2018-07-30T07:33:24.083Z,100714.22
2018-07-30T07:35:53.894Z,100710.88
2018-07-30T07:38:24.085Z,100707.89
2018-07-30T07:40:54.097Z,100701.77
2018-07-30T07:43:23.823Z,100708.92
2018-07-30T07:45:53.794Z,100704.03
2018-07-30T07:48:23.615Z,100706.42
2018-07-30T07:50:53.854Z,100713.25
2018-07-30T07:53:23.900Z,100709.50
2018-07-30T07:55:54.008Z,100707.53
2018-07-30T07:58:24.150Z,100707.53
2018-07-30T08:00:53.947Z,100703.94
2018-07-30T08:03:24.415Z,100705.43
2018-07-30T08:05:54.494Z,100704.38
2018-07-30T08:08:24.647Z,100707.55
2018-07-30T08:10:54.558Z,100703.96
2018-07-30T08:13:24.767Z,100707.11
2018-07-30T08:15:54.795Z,100710.47
2018-07-30T08:18:24.939Z,100712.06
2018-07-30T08:20:55.070Z,100713.28
2018-07-30T08:23:25.475Z,100697.90
2018-07-30T08:25:55.502Z,100704.44
2018-07-30T08:28:25.543Z,100700.45
2018-07-30T08:30:55.666Z,100705.27
2018-07-30T08:33:25.435Z,100705.51
2018-07-30T08:35:56.169Z,100702.28
2018-07-30T08:38:26.265Z,100710.00
2018-07-30T08:40:56.429Z,100709.00
2018-07-30T08:43:26.656Z,100716.34
2018-07-30T08:45:56.725Z,100705.99
2018-07-30T08:48:26.742Z,100710.66
2018-07-30T08:50:56.985Z,100706.16
2018-07-30T08:53:27.185Z,100702.77
2018-07-30T08:55:58.746Z,100708.10
2018-07-30T08:58:29.792Z,100710.63
2018-07-30T09:00:59.984Z,100708.97
2018-07-30T09:03:30.088Z,100699.92
2018-07-30T09:06:00.150Z,100711.66
2018-07-30T09:08:30.235Z,100712.73
2018-07-30T09:11:00.414Z,100702.29
2018-07-30T09:13:30.602Z,100704.45
2018-07-30T09:16:02.653Z,100707.30
2018-07-30T09:18:34.647Z,100703.09
2018-07-30T09:21:04.893Z,100707.05
2018-07-30T09:23:35.150Z,100696.80
2018-07-30T09:26:06.307Z,100697.71
2018-07-30T09:28:36.395Z,100702.13
2018-07-30T09:31:06.479Z,100704.05
2018-07-30T09:33:36.701Z,100695.14
2018-07-30T09:36:06.824Z,100705.27
2018-07-30T09:38:37.104Z,100691.88
2018-07-30T09:41:07.143Z,100694.42
2018-07-30T09:43:37.966Z,100693.94
2018-07-30T09:46:08.086Z,100697.13
2018-07-30T09:48:38.255Z,100693.67
2018-07-30T09:51:09.289Z,100696.89
2018-07-30T09:53:39.502Z,100696.22
2018-07-30T09:56:09.551Z,100690.67
2018-07-30T09:58:39.471Z,100690.45
2018-07-30T10:01:13.534Z,100697.66
2018-07-30T10:03:43.558Z,100696.28
2018-07-30T10:06:13.703Z,100693.64
2018-07-30T10:08:43.898Z,100689.66
2018-07-30T10:11:14.115Z,100687.14
2018-07-30T10:13:43.977Z,100692.31
2018-07-30T10:16:13.847Z,100693.17
2018-07-30T10:18:44.057Z,100685.33
2018-07-30T10:21:13.821Z,100681.95
2018-07-30T10:23:44.087Z,100680.70
2018-07-30T10:26:13.960Z,100677.73
2018-07-30T10:28:43.924Z,100686.12
2018-07-30T10:31:13.982Z,100683.66
2018-07-30T10:33:43.835Z,100686.80
2018-07-30T10:36:13.715Z,100685.64
2018-07-30T10:38:44.148Z,100686.98
2018-07-30T10:41:14.365Z,100691.95
2018-07-30T10:43:44.422Z,100690.47
2018-07-30T10:46:14.654Z,100694.41
2018-07-30T10:48:44.996Z,100683.20
2018-07-30T10:51:15.010Z,100675.33
2018-07-30T10:53:45.229Z,100674.81
2018-07-30T10:56:15.340Z,100672.69
2018-07-30T10:58:45.496Z,100674.32
2018-07-30T11:01:15.613Z,100671.95
2018-07-30T11:03:45.470Z,100672.20
2018-07-30T11:06:15.560Z,100667.66
2018-07-30T11:08:45.625Z,100665.23
2018-07-30T11:11:15.647Z,100666.26
2018-07-30T11:13:45.829Z,100659.42
2018-07-30T11:16:15.978Z,100652.89
2018-07-30T11:18:46.040Z,100646.80
2018-07-30T11:21:16.155Z,100643.81
2018-07-30T11:23:46.449Z,100640.45
2018-07-30T11:26:16.538Z,100642.78
2018-07-30T11:28:47.059Z,100651.94
2018-07-30T11:31:17.899Z,100654.86
2018-07-30T11:33:47.927Z,100652.66
2018-07-30T11:36:18.113Z,100645.22
2018-07-30T11:38:48.263Z,100647.61
2018-07-30T11:41:18.496Z,100642.36
2018-07-30T11:43:48.591Z,100643.95
2018-07-30T11:46:18.843Z,100645.83
2018-07-30T11:48:49.123Z,100639.75
2018-07-30T11:51:19.135Z,100640.72
2018-07-30T11:53:49.150Z,100644.42
2018-07-30T11:56:19.783Z,100636.01
2018-07-30T12:02:00.648Z,100632.06
2018-07-30T12:04:30.968Z,100639.14
2018-07-30T12:07:01.496Z,100634.56
2018-07-30T12:09:31.527Z,100633.14
2018-07-30T12:12:01.513Z,100631.27
2018-07-30T12:14:31.416Z,100628.67
2018-07-30T12:17:01.375Z,100634.38
2018-07-30T12:19:31.323Z,100628.55
2018-07-30T12:22:01.301Z,100617.48
2018-07-30T12:24:31.479Z,100621.11
2018-07-30T12:27:01.710Z,100621.63
2018-07-30T12:29:32.047Z,100628.39
2018-07-30T12:32:02.444Z,100631.17
2018-07-30T12:34:32.507Z,100620.99
2018-07-30T12:37:02.652Z,100623.06
2018-07-30T12:39:32.968Z,100622.75
2018-07-30T12:42:02.897Z,100622.49
2018-07-30T12:44:33.128Z,100620.79
2018-07-30T12:47:03.415Z,100620.66
2018-07-30T12:49:33.474Z,100613.77
2018-07-30T12:52:03.430Z,100611.67
2018-07-30T12:54:34.053Z,100608.78
2018-07-30T12:57:04.120Z,100617.39
2018-07-30T12:59:34.588Z,100606.41
2018-07-30T13:02:04.857Z,100609.13
2018-07-30T13:04:34.985Z,100606.83
2018-07-30T13:07:04.973Z,100611.59
2018-07-30T13:09:34.879Z,100605.38
2018-07-30T13:12:04.938Z,100607.43
2018-07-30T13:14:35.141Z,100603.17
2018-07-30T13:17:05.291Z,100596.80
2018-07-30T13:19:35.707Z,100592.32
2018-07-30T13:22:05.952Z,100593.09
2018-07-30T13:24:36.176Z,100597.08
2018-07-30T13:27:06.275Z,100587.19
2018-07-30T13:29:36.314Z,100591.58
2018-07-30T13:32:06.434Z,100581.98
2018-07-30T13:34:36.551Z,100582.40
2018-07-30T13:37:06.590Z,100577.47
2018-07-30T13:39:37.788Z,100570.61
2018-07-30T13:42:07.955Z,100573.16
2018-07-30T13:44:37.923Z,100569.56
2018-07-30T13:47:08.258Z,100573.47
2018-07-30T13:49:38.724Z,100570.91
2018-07-30T13:52:08.877Z,100568.98
2018-07-30T13:54:39.069Z,100562.75
2018-07-30T13:57:09.484Z,100568.95
2018-07-30T13:59:39.716Z,100567.55
2018-07-30T14:02:10.059Z,100569.44
2018-07-30T14:04:40.075Z,100562.97
2018-07-30T14:07:10.198Z,100558.55
2018-07-30T14:09:40.204Z,100559.72
2018-07-30T14:12:10.216Z,100557.97
2018-07-30T14:14:40.268Z,100563.95
2018-07-30T14:17:10.301Z,100567.80
2018-07-30T14:19:40.179Z,100568.72
2018-07-30T14:22:10.539Z,100568.52
2018-07-30T14:24:40.732Z,100564.52
2018-07-30T14:27:10.915Z,100563.44
2018-07-30T14:29:41.066Z,100568.45
2018-07-30T14:32:11.080Z,100568.00
2018-07-30T14:34:41.234Z,100567.05
2018-07-30T14:37:11.147Z,100562.78
2018-07-30T14:39:40.937Z,100567.34
2018-07-30T14:42:11.006Z,100566.05
2018-07-30T14:44:40.894Z,100557.28
2018-07-30T14:47:10.987Z,100556.60
2018-07-30T14:49:41.293Z,100555.80
2018-07-30T14:52:11.378Z,100546.95
2018-07-30T14:54:41.454Z,100543.03
2018-07-30T14:57:11.351Z,100533.92
2018-07-30T14:59:41.484Z,100534.52
2018-07-30T15:02:11.574Z,100528.90
2018-07-30T15:04:41.620Z,100532.05
2018-07-30T15:07:11.501Z,100519.13
2018-07-30T15:09:42.028Z,100512.84
2018-07-30T15:12:12.130Z,100525.80
2018-07-30T15:14:42.272Z,100523.53
2018-07-30T15:17:12.464Z,100522.99
2018-07-30T15:19:42.518Z,100529.85
2018-07-30T15:22:12.699Z,100512.02
2018-07-30T15:24:42.780Z,100522.13
2018-07-30T15:27:12.619Z,100519.17
2018-07-30T15:29:42.638Z,100509.13
2018-07-30T15:32:12.881Z,100510.14
2018-07-30T15:34:42.923Z,100510.84
2018-07-30T15:37:12.896Z,100506.42
2018-07-30T15:39:42.701Z,100505.29
2018-07-30T15:42:12.831Z,100501.28
2018-07-30T15:44:43.007Z,100502.44
2018-07-30T15:47:13.163Z,100499.47
2018-07-30T15:49:44.432Z,100502.08
2018-07-30T15:52:25.222Z,100503.22
2018-07-30T15:58:05.300Z,100497.82
2018-07-30T16:00:38.522Z,100507.16
2018-07-30T16:03:08.459Z,100508.32
2018-07-30T16:05:38.584Z,100496.45
2018-07-30T16:08:08.864Z,100505.22
2018-07-30T16:10:39.853Z,100498.34
2018-07-30T16:13:09.846Z,100499.20
2018-07-30T16:15:39.810Z,100493.77
2018-07-30T16:18:09.901Z,100495.88
2018-07-30T16:20:40.099Z,100502.90
2018-07-30T16:23:10.129Z,100494.00
2018-07-30T16:25:40.089Z,100500.98
2018-07-30T16:28:10.117Z,100493.34
2018-07-30T16:30:40.417Z,100482.42
2018-07-30T16:33:11.152Z,100489.88
2018-07-30T16:35:41.857Z,100491.58
2018-07-30T16:38:12.043Z,100488.28
2018-07-30T16:40:42.071Z,100491.66
2018-07-30T16:43:12.661Z,100491.83
2018-07-30T16:45:42.809Z,100495.05
2018-07-30T16:48:12.892Z,100493.98
2018-07-30T16:50:42.900Z,100492.77
2018-07-30T16:53:12.998Z,100491.23
2018-07-30T16:55:43.240Z,100499.77
2018-07-30T16:58:13.911Z,100499.41
2018-07-30T17:01:07.704Z,100499.57
2018-07-30T17:03:37.932Z,100501.97
2018-07-30T17:06:08.015Z,100498.17
2018-07-30T17:08:38.229Z,100501.97
2018-07-30T17:11:08.341Z,100501.09
2018-07-30T17:13:38.540Z,100501.27
2018-07-30T17:16:36.417Z,100502.63
2018-07-30T17:19:06.656Z,100503.09
2018-07-30T17:21:37.882Z,100496.67
2018-07-30T17:24:07.947Z,100500.44
2018-07-30T17:26:37.869Z,100502.72
2018-07-30T17:29:08.564Z,100501.50
2018-07-30T17:31:38.998Z,100495.53
2018-07-30T17:34:09.110Z,100504.72
2018-07-30T17:36:38.863Z,100503.45
2018-07-30T17:39:10.662Z,100505.77
2018-07-30T17:41:40.587Z,100506.78
2018-07-30T17:44:10.302Z,100506.70
2018-07-30T17:46:40.043Z,100506.59
2018-07-30T17:49:09.839Z,100502.33
2018-07-30T17:51:39.701Z,100503.30
2018-07-30T17:54:09.528Z,100498.09
2018-07-30T17:56:39.434Z,100502.48
2018-07-30T17:59:09.810Z,100496.47
2018-07-30T18:01:41.151Z,100502.10
2018-07-30T18:04:38.703Z,100497.91
2018-07-30T18:13:52.723Z,100500.80
2018-07-30T18:16:22.927Z,100499.98
2018-07-30T18:18:53.114Z,100506.80
2018-07-30T18:21:23.082Z,100507.23
2018-07-30T18:27:03.595Z,100504.41
2018-07-30T18:29:33.885Z,100504.92
2018-07-30T18:32:04.381Z,100507.63
2018-07-30T18:34:40.109Z,100507.91
2018-07-30T18:37:10.026Z,100505.64
2018-07-30T18:39:43.178Z,100509.37
2018-07-30T18:42:13.523Z,100507.41
2018-07-30T18:45:11.644Z,100508.34
2018-07-30T18:47:53.247Z,100512.03
2018-07-30T18:50:23.135Z,100514.44
2018-07-30T18:52:53.112Z,100511.61
2018-07-30T18:55:23.942Z,100514.44
2018-07-30T18:57:53.839Z,100517.92
2018-07-30T19:00:23.864Z,100525.92
2018-07-30T19:02:54.218Z,100524.52
2018-07-30T19:05:24.334Z,100529.73
2018-07-30T19:07:54.507Z,100530.88
2018-07-30T19:10:49.891Z,100539.86
2018-07-30T19:13:27.254Z,100540.80
2018-07-30T19:19:15.659Z,100555.20
2018-07-30T19:21:45.741Z,100551.16
2018-07-30T19:24:15.891Z,100559.64
2018-07-30T19:29:56.731Z,100555.69
2018-07-30T19:32:26.682Z,100560.51
2018-07-30T19:34:59.799Z,100569.00
2018-07-30T19:37:30.209Z,100570.22
2018-07-30T19:40:00.374Z,100573.25
2018-07-30T19:42:30.479Z,100577.25
2018-07-30T19:45:00.607Z,100576.56
2018-07-30T19:47:30.488Z,100581.41
2018-07-30T19:50:00.663Z,100591.45
2018-07-30T19:52:30.623Z,100585.84
2018-07-30T19:55:00.944Z,100588.20
2018-07-30T19:57:35.243Z,100585.75
2018-07-30T20:00:08.596Z,100587.92
2018-07-30T20:02:39.004Z,100589.36
2018-07-30T20:05:09.761Z,100599.36
2018-07-30T20:07:39.939Z,100598.18
2018-07-30T20:10:10.257Z,100599.36
2018-07-30T20:12:40.570Z,100601.92
2018-07-30T20:15:10.912Z,100602.64
2018-07-30T20:17:40.847Z,100606.92
2018-07-30T20:20:16.215Z,100609.87
2018-07-30T20:22:46.708Z,100614.27
2018-07-30T20:25:21.651Z,100620.35
2018-07-30T20:27:51.761Z,100619.05
2018-07-30T20:30:22.338Z,100613.56
2018-07-30T20:32:52.678Z,100622.77
2018-07-30T20:35:23.804Z,100617.53
2018-07-30T20:38:33.920Z,100617.97
2018-07-30T20:41:04.634Z,100617.48
2018-07-30T20:43:35.406Z,100622.49
2018-07-30T20:46:12.041Z,100619.26
2018-07-30T20:48:43.399Z,100621.08
2018-07-30T20:51:13.803Z,100623.70
2018-07-30T20:53:44.003Z,100622.49
2018-07-30T20:56:14.035Z,100626.87
2018-07-30T20:58:44.163Z,100628.95
2018-07-30T21:01:14.263Z,100627.99
2018-07-30T21:03:44.424Z,100630.75
2018-07-30T21:06:14.372Z,100635.64
2018-07-30T21:08:44.616Z,100640.03
2018-07-30T21:11:14.639Z,100627.09
2018-07-30T21:13:52.253Z,100627.74
2018-07-30T21:16:22.372Z,100631.56
2018-07-30T21:19:04.894Z,100639.06
2018-07-30T21:21:43.379Z,100634.13
2018-07-30T21:24:13.544Z,100637.24
2018-07-30T21:26:43.428Z,100639.05
2018-07-30T21:29:13.462Z,100641.17
2018-07-30T21:31:43.660Z,100637.94
2018-07-30T21:34:14.229Z,100633.02
2018-07-30T21:36:44.017Z,100635.89
2018-07-30T21:39:14.552Z,100636.80
2018-07-30T21:41:44.348Z,100638.14
2018-07-30T21:44:14.288Z,100633.61
2018-07-30T21:46:44.230Z,100637.23
2018-07-30T21:49:14.246Z,100633.75
2018-07-30T21:51:44.055Z,100636.19
2018-07-30T21:54:14.109Z,100635.45
2018-07-30T21:56:43.934Z,100644.66
2018-07-30T21:59:13.805Z,100646.70
2018-07-30T22:01:44.090Z,100656.55
2018-07-30T22:04:14.159Z,100661.61
2018-07-30T22:06:43.995Z,100665.41
2018-07-30T22:09:14.220Z,100660.84
2018-07-30T22:11:44.303Z,100659.92
2018-07-30T22:14:14.479Z,100666.09
2018-07-30T22:16:44.454Z,100678.94
2018-07-30T22:19:14.322Z,100668.59
2018-07-30T22:21:44.461Z,100670.52
2018-07-30T22:24:14.542Z,100672.57
2018-07-30T22:26:44.638Z,100675.56
2018-07-30T22:29:14.790Z,100672.17
2018-07-30T22:31:44.526Z,100671.84
2018-07-30T22:34:14.661Z,100680.06
2018-07-30T22:36:44.372Z,100675.95
2018-07-30T22:39:14.477Z,100669.34
2018-07-30T22:41:44.372Z,100673.87
2018-07-30T22:44:14.169Z,100682.92
2018-07-30T22:46:44.301Z,100675.76
2018-07-30T22:49:14.345Z,100681.59
2018-07-30T22:51:44.320Z,100677.55
2018-07-30T22:54:14.202Z,100675.58
2018-07-30T22:56:43.982Z,100679.58
2018-07-30T22:59:14.390Z,100676.90
2018-07-30T23:01:44.156Z,100678.95
2018-07-30T23:04:14.177Z,100681.59
2018-07-30T23:06:43.954Z,100683.09
2018-07-30T23:09:14.075Z,100675.19
2018-07-30T23:11:44.161Z,100674.89
2018-07-30T23:14:13.994Z,100679.38
2018-07-30T23:16:43.804Z,100678.89
2018-07-30T23:19:13.571Z,100676.25
2018-07-30T23:21:43.579Z,100672.93
2018-07-30T23:24:13.634Z,100669.72
2018-07-30T23:26:43.846Z,100672.75
2018-07-30T23:29:13.893Z,100668.20
2018-07-30T23:31:43.667Z,100666.05
2018-07-30T23:34:13.849Z,100671.59
2018-07-30T23:36:43.659Z,100671.53
2018-07-30T23:39:13.780Z,100668.03
2018-07-30T23:41:43.862Z,100666.31
2018-07-30T23:44:13.963Z,100664.16
2018-07-30T23:46:43.835Z,100668.84
2018-07-30T23:49:13.983Z,100665.27
2018-07-30T23:51:44.107Z,100669.27
2018-07-30T23:54:14.145Z,100669.97
2018-07-30T23:56:44.103Z,100670.68
2018-07-30T23:59:14.249Z,100668.50
